createdAt,value
2023-01-26T00:00:49.944Z,46.53
2023-01-26T00:01:49.929Z,46.53
2023-01-26T00:02:49.985Z,46.62
2023-01-26T00:03:49.928Z,46.62
2023-01-26T00:04:49.860Z,46.53
2023-01-26T00:05:49.813Z,46.53
2023-01-26T00:06:49.796Z,46.53
2023-01-26T00:07:49.812Z,46.53
2023-01-26T00:08:49.760Z,46.53
2023-01-26T00:09:49.740Z,46.42
2023-01-26T00:10:49.747Z,46.41
2023-01-26T00:11:49.756Z,46.42
2023-01-26T00:12:49.719Z,46.53
2023-01-26T00:13:49.756Z,46.42
2023-01-26T00:14:50.051Z,46.42
2023-01-26T00:15:49.798Z,46.42
2023-01-26T00:16:49.711Z,46.42
2023-01-26T00:17:49.724Z,46.53
2023-01-26T00:18:49.688Z,46.53
2023-01-26T00:19:49.758Z,46.53
2023-01-26T00:20:49.707Z,46.53
2023-01-26T00:21:49.650Z,46.53
2023-01-26T00:22:49.653Z,46.42
2023-01-26T00:23:49.715Z,46.41
2023-01-26T00:24:49.569Z,46.41
2023-01-26T00:25:49.586Z,46.42
2023-01-26T00:26:49.537Z,46.41
2023-01-26T00:27:49.551Z,46.42
2023-01-26T00:28:49.588Z,46.42
2023-01-26T00:29:49.569Z,46.42
2023-01-26T00:30:49.685Z,46.42
2023-01-26T00:31:49.590Z,46.42
2023-01-26T00:32:49.516Z,46.42
2023-01-26T00:33:49.502Z,46.42
2023-01-26T00:34:49.502Z,46.42
2023-01-26T00:35:49.500Z,46.42
2023-01-26T00:36:49.518Z,46.42
2023-01-26T00:37:49.467Z,46.41
2023-01-26T00:38:49.425Z,46.30
2023-01-26T00:39:49.430Z,46.41
2023-01-26T00:40:49.417Z,46.30
2023-01-26T00:41:49.379Z,46.30
2023-01-26T00:42:49.389Z,46.30
2023-01-26T00:43:49.417Z,46.30
2023-01-26T00:44:49.322Z,46.41
2023-01-26T00:45:49.326Z,46.30
2023-01-26T00:46:49.439Z,46.30
2023-01-26T00:47:49.326Z,46.30
2023-01-26T00:48:49.343Z,46.30
2023-01-26T00:49:49.398Z,46.30
2023-01-26T00:50:49.326Z,46.41
2023-01-26T00:51:49.318Z,46.30
2023-01-26T00:52:49.309Z,46.30
2023-01-26T00:53:49.254Z,46.30
2023-01-26T00:54:49.227Z,46.30
2023-01-26T00:55:49.237Z,46.30
2023-01-26T00:56:49.190Z,46.30
2023-01-26T00:57:49.206Z,46.30
2023-01-26T00:58:49.257Z,46.30
2023-01-26T00:59:49.203Z,46.30
2023-01-26T01:00:49.262Z,46.30
2023-01-26T01:01:49.273Z,46.20
2023-01-26T01:02:49.139Z,46.30
2023-01-26T01:03:49.134Z,46.30
2023-01-26T01:04:49.137Z,46.30
2023-01-26T01:05:49.110Z,46.30
2023-01-26T01:06:49.102Z,46.30
2023-01-26T01:07:49.136Z,46.20
2023-01-26T01:08:49.070Z,46.20
2023-01-26T01:09:49.071Z,46.20
2023-01-26T01:10:49.089Z,46.20
2023-01-26T01:11:49.043Z,46.20
2023-01-26T01:12:49.034Z,46.20
2023-01-26T01:13:49.035Z,46.20
2023-01-26T01:14:49.054Z,46.20
2023-01-26T01:15:49.041Z,46.20
2023-01-26T01:16:48.993Z,46.20
2023-01-26T01:17:49.043Z,46.20
2023-01-26T01:18:48.995Z,46.20
2023-01-26T01:19:48.962Z,46.20
2023-01-26T01:20:48.948Z,46.20
2023-01-26T01:21:48.908Z,46.11
2023-01-26T01:22:48.878Z,46.20
2023-01-26T01:23:48.959Z,46.11
2023-01-26T01:24:48.880Z,46.11
2023-01-26T01:25:48.890Z,46.11
2023-01-26T01:26:48.831Z,46.11
2023-01-26T01:27:48.816Z,46.11
2023-01-26T01:28:48.821Z,46.11
2023-01-26T01:29:48.849Z,46.11
2023-01-26T01:30:48.858Z,46.11
2023-01-26T01:31:48.865Z,46.11
2023-01-26T01:32:48.844Z,46.11
2023-01-26T01:33:48.788Z,46.11
2023-01-26T01:34:48.775Z,46.20
2023-01-26T01:35:48.790Z,46.20
2023-01-26T01:36:48.749Z,46.11
2023-01-26T01:37:48.770Z,46.11
2023-01-26T01:38:48.756Z,46.11
2023-01-26T01:39:48.810Z,46.11
2023-01-26T01:40:48.765Z,46.11
2023-01-26T01:41:48.703Z,46.11
2023-01-26T01:42:48.679Z,46.00
2023-01-26T01:43:48.732Z,46.11
2023-01-26T01:44:48.676Z,46.11
2023-01-26T01:45:48.717Z,46.11
2023-01-26T01:46:48.766Z,46.11
2023-01-26T01:47:48.656Z,46.11
2023-01-26T01:48:48.626Z,46.11
2023-01-26T01:49:48.620Z,46.11
2023-01-26T01:50:48.620Z,46.11
2023-01-26T01:51:48.575Z,46.11
2023-01-26T01:52:48.632Z,46.11
2023-01-26T01:53:48.641Z,46.11
2023-01-26T01:54:48.582Z,46.11
2023-01-26T01:55:48.609Z,46.11
2023-01-26T01:56:48.595Z,46.11
2023-01-26T01:57:48.569Z,46.11
2023-01-26T01:58:48.542Z,46.11
2023-01-26T01:59:48.523Z,46.11
2023-01-26T02:00:48.548Z,46.00
2023-01-26T02:01:48.586Z,46.00
2023-01-26T02:02:48.493Z,46.00
2023-01-26T02:03:48.447Z,46.00
2023-01-26T02:04:48.427Z,46.11
2023-01-26T02:05:48.438Z,46.11
2023-01-26T02:06:48.450Z,46.00
2023-01-26T02:07:48.562Z,46.00
2023-01-26T02:08:48.395Z,46.00
2023-01-26T02:09:48.410Z,46.00
2023-01-26T02:10:48.408Z,46.00
2023-01-26T02:11:48.417Z,46.00
2023-01-26T02:12:48.399Z,46.00
2023-01-26T02:13:48.407Z,46.00
2023-01-26T02:14:48.395Z,46.00
2023-01-26T02:15:48.405Z,46.00
2023-01-26T02:16:48.381Z,46.00
2023-01-26T02:17:48.333Z,46.00
2023-01-26T02:18:48.324Z,46.00
2023-01-26T02:19:48.281Z,46.00
2023-01-26T02:20:48.260Z,46.00
2023-01-26T02:21:48.231Z,46.00
2023-01-26T02:22:48.200Z,45.90
2023-01-26T02:23:48.277Z,45.90
2023-01-26T02:24:48.217Z,45.90
2023-01-26T02:25:48.254Z,46.00
2023-01-26T02:26:48.211Z,46.00
2023-01-26T02:27:48.237Z,46.00
2023-01-26T02:28:48.207Z,46.00
2023-01-26T02:29:48.189Z,46.00
2023-01-26T02:30:48.197Z,46.00
2023-01-26T02:31:48.209Z,46.00
2023-01-26T02:32:48.150Z,46.00
2023-01-26T02:33:48.133Z,46.00
2023-01-26T02:34:48.156Z,46.00
2023-01-26T02:35:48.124Z,46.11
2023-01-26T02:36:48.106Z,46.00
2023-01-26T02:37:48.153Z,46.00
2023-01-26T02:38:48.080Z,45.98
2023-01-26T02:39:48.077Z,45.88
2023-01-26T02:40:48.097Z,45.88
2023-01-26T02:41:48.087Z,45.88
2023-01-26T02:42:48.076Z,45.88
2023-01-26T02:43:48.032Z,45.88
2023-01-26T02:44:47.996Z,45.88
2023-01-26T02:45:48.089Z,45.90
2023-01-26T02:46:48.020Z,46.00
2023-01-26T02:47:48.063Z,45.90
2023-01-26T02:48:48.042Z,46.00
2023-01-26T02:49:48.025Z,46.00
2023-01-26T02:50:47.956Z,45.98
2023-01-26T02:51:47.953Z,45.88
2023-01-26T02:52:47.956Z,45.88
2023-01-26T02:53:47.925Z,45.98
2023-01-26T02:54:47.935Z,45.88
2023-01-26T02:55:47.946Z,45.88
2023-01-26T02:56:47.888Z,45.88
2023-01-26T02:57:47.893Z,45.88
2023-01-26T02:58:47.885Z,45.88
2023-01-26T02:59:47.876Z,45.88
2023-01-26T03:00:47.971Z,45.88
2023-01-26T03:01:47.916Z,45.90
2023-01-26T03:02:47.917Z,45.88
2023-01-26T03:03:47.888Z,45.90
2023-01-26T03:04:47.837Z,45.98
2023-01-26T03:05:47.806Z,45.88
2023-01-26T03:06:47.775Z,45.88
2023-01-26T03:07:47.788Z,45.88
2023-01-26T03:08:47.756Z,45.88
2023-01-26T03:09:47.753Z,45.78
2023-01-26T03:10:47.759Z,45.88
2023-01-26T03:11:47.790Z,45.78
2023-01-26T03:12:47.769Z,45.78
2023-01-26T03:13:47.785Z,45.88
2023-01-26T03:14:47.704Z,45.88
2023-01-26T03:15:47.755Z,45.78
2023-01-26T03:16:47.727Z,45.88
2023-01-26T03:17:47.718Z,45.88
2023-01-26T03:18:47.684Z,45.78
2023-01-26T03:19:47.703Z,45.88
2023-01-26T03:20:47.686Z,45.88
2023-01-26T03:21:47.656Z,45.88
2023-01-26T03:22:47.652Z,45.78
2023-01-26T03:23:47.697Z,45.88
2023-01-26T03:24:47.660Z,45.78
2023-01-26T03:25:47.644Z,45.78
2023-01-26T03:26:47.592Z,45.78
2023-01-26T03:27:47.574Z,45.78
2023-01-26T03:28:47.541Z,45.78
2023-01-26T03:29:47.556Z,45.78
2023-01-26T03:30:47.578Z,45.78
2023-01-26T03:31:47.526Z,45.68
2023-01-26T03:32:47.534Z,45.78
2023-01-26T03:33:47.508Z,45.78
2023-01-26T03:34:47.486Z,45.88
2023-01-26T03:35:47.548Z,45.88
2023-01-26T03:36:47.547Z,45.78
2023-01-26T03:37:47.506Z,45.78
2023-01-26T03:38:47.501Z,45.78
2023-01-26T03:39:47.490Z,45.78
2023-01-26T03:40:47.443Z,45.78
2023-01-26T03:41:47.428Z,45.78
2023-01-26T03:42:47.435Z,45.78
2023-01-26T03:43:47.471Z,45.78
2023-01-26T03:44:47.444Z,45.78
2023-01-26T03:45:47.410Z,45.78
2023-01-26T03:46:47.457Z,45.78
2023-01-26T03:47:47.408Z,45.78
2023-01-26T03:48:47.384Z,45.78
2023-01-26T03:49:47.340Z,45.78
2023-01-26T03:50:47.313Z,45.78
2023-01-26T03:51:47.280Z,45.78
2023-01-26T03:52:47.298Z,45.68
2023-01-26T03:53:47.353Z,45.78
2023-01-26T03:54:47.280Z,45.68
2023-01-26T03:55:47.344Z,45.68
2023-01-26T03:56:47.280Z,45.68
2023-01-26T03:57:47.319Z,45.68
2023-01-26T03:58:47.263Z,45.68
2023-01-26T03:59:47.281Z,45.78
2023-01-26T04:00:47.269Z,45.78
2023-01-26T04:01:47.257Z,45.68
2023-01-26T04:02:47.212Z,45.78
2023-01-26T04:03:47.199Z,45.78
2023-01-26T04:04:47.208Z,45.78
2023-01-26T04:05:47.174Z,45.78
2023-01-26T04:06:47.192Z,45.78
2023-01-26T04:07:47.220Z,45.78
2023-01-26T04:08:47.214Z,45.78
2023-01-26T04:09:47.191Z,45.68
2023-01-26T04:10:47.152Z,45.68
2023-01-26T04:11:47.108Z,45.68
2023-01-26T04:12:48.746Z,45.68
2023-01-26T04:13:47.094Z,45.68
2023-01-26T04:14:50.056Z,45.68
2023-01-26T04:15:47.111Z,45.68
2023-01-26T04:16:47.036Z,45.68
2023-01-26T04:17:47.025Z,45.68
2023-01-26T04:18:46.973Z,45.68
2023-01-26T04:19:47.000Z,45.78
2023-01-26T04:20:46.997Z,45.68
2023-01-26T04:21:46.977Z,45.68
2023-01-26T04:22:46.934Z,45.68
2023-01-26T04:23:46.965Z,45.68
2023-01-26T04:24:46.918Z,45.68
2023-01-26T04:25:47.280Z,45.68
2023-01-26T04:26:46.884Z,45.68
2023-01-26T04:27:46.913Z,45.68
2023-01-26T04:28:46.924Z,45.68
2023-01-26T04:29:46.884Z,45.68
2023-01-26T04:30:46.945Z,45.68
2023-01-26T04:31:46.996Z,45.68
2023-01-26T04:32:46.897Z,45.68
2023-01-26T04:33:46.859Z,45.68
2023-01-26T04:34:46.855Z,45.68
2023-01-26T04:35:46.817Z,45.68
2023-01-26T04:36:46.816Z,45.68
2023-01-26T04:37:46.883Z,45.68
2023-01-26T04:38:46.858Z,45.68
2023-01-26T04:39:46.831Z,45.68
2023-01-26T04:40:46.819Z,45.68
2023-01-26T04:41:46.785Z,45.68
2023-01-26T04:42:46.784Z,45.68
2023-01-26T04:43:46.771Z,45.68
2023-01-26T04:44:46.776Z,45.68
2023-01-26T04:45:46.812Z,45.68
2023-01-26T04:46:46.766Z,45.68
2023-01-26T04:47:46.695Z,45.68
2023-01-26T04:48:46.717Z,45.68
2023-01-26T04:49:46.659Z,45.68
2023-01-26T04:50:46.669Z,45.78
2023-01-26T04:51:46.678Z,45.68
2023-01-26T04:52:46.689Z,45.68
2023-01-26T04:53:46.698Z,45.68
2023-01-26T04:54:46.675Z,45.68
2023-01-26T04:55:46.721Z,45.58
2023-01-26T04:56:46.657Z,45.68
2023-01-26T04:57:46.664Z,45.68
2023-01-26T04:58:46.642Z,45.68
2023-01-26T04:59:46.665Z,45.68
2023-01-26T05:00:46.703Z,45.68
2023-01-26T05:01:46.653Z,45.68
2023-01-26T05:02:46.648Z,45.68
2023-01-26T05:03:46.600Z,45.68
2023-01-26T05:04:46.541Z,45.68
2023-01-26T05:05:46.525Z,45.68
2023-01-26T05:06:46.504Z,45.78
2023-01-26T05:07:46.537Z,45.68
2023-01-26T05:08:46.506Z,45.68
2023-01-26T05:09:46.497Z,45.68
2023-01-26T05:10:46.518Z,45.58
2023-01-26T05:11:46.481Z,45.68
2023-01-26T05:12:46.461Z,45.68
2023-01-26T05:13:46.488Z,45.68
2023-01-26T05:14:46.451Z,45.68
2023-01-26T05:15:46.463Z,45.68
2023-01-26T05:16:46.499Z,45.68
2023-01-26T05:17:46.426Z,45.68
2023-01-26T05:18:46.455Z,45.68
2023-01-26T05:19:46.436Z,45.68
2023-01-26T05:20:46.372Z,45.68
2023-01-26T05:21:46.392Z,45.68
2023-01-26T05:22:46.357Z,45.68
2023-01-26T05:23:46.401Z,45.68
2023-01-26T05:24:46.398Z,45.68
2023-01-26T05:25:46.417Z,45.68
2023-01-26T05:26:46.352Z,45.68
2023-01-26T05:27:46.399Z,45.68
2023-01-26T05:28:46.382Z,45.68
2023-01-26T05:29:46.351Z,45.68
2023-01-26T05:30:46.356Z,45.68
2023-01-26T05:31:46.363Z,45.68
2023-01-26T05:32:46.283Z,45.68
2023-01-26T05:33:46.233Z,45.68
2023-01-26T05:34:46.265Z,45.68
2023-01-26T05:35:46.199Z,45.68
2023-01-26T05:36:46.235Z,45.68
2023-01-26T05:37:46.228Z,45.58
2023-01-26T05:38:46.183Z,45.58
2023-01-26T05:39:46.199Z,45.58
2023-01-26T05:40:46.153Z,45.58
2023-01-26T05:41:46.139Z,45.58
2023-01-26T05:42:46.159Z,45.58
2023-01-26T05:43:46.171Z,45.58
2023-01-26T05:44:46.147Z,45.58
2023-01-26T05:45:46.175Z,45.58
2023-01-26T05:46:46.155Z,45.58
2023-01-26T05:47:46.182Z,45.58
2023-01-26T05:48:46.074Z,45.68
2023-01-26T05:49:46.081Z,45.68
2023-01-26T05:50:46.115Z,45.68
2023-01-26T05:51:46.077Z,45.68
2023-01-26T05:52:46.108Z,45.58
2023-01-26T05:53:46.089Z,45.58
2023-01-26T05:54:46.070Z,45.58
2023-01-26T05:55:46.112Z,45.58
2023-01-26T05:56:46.089Z,45.68
2023-01-26T05:57:46.049Z,45.58
2023-01-26T05:58:46.070Z,45.68
2023-01-26T05:59:46.057Z,45.68
2023-01-26T06:00:46.077Z,45.68
2023-01-26T06:01:46.017Z,45.68
2023-01-26T06:02:48.467Z,45.68
2023-01-26T06:03:46.016Z,45.68
2023-01-26T06:04:45.981Z,45.68
2023-01-26T06:05:46.018Z,45.68
2023-01-26T06:06:45.993Z,45.78
2023-01-26T06:07:45.974Z,45.68
2023-01-26T06:08:45.967Z,45.68
2023-01-26T06:09:45.975Z,45.68
2023-01-26T06:10:45.951Z,45.78
2023-01-26T06:11:45.943Z,45.78
2023-01-26T06:12:45.951Z,45.78
2023-01-26T06:13:45.961Z,45.68
2023-01-26T06:14:47.301Z,45.78
2023-01-26T06:15:45.883Z,45.78
2023-01-26T06:16:45.986Z,45.78
2023-01-26T06:17:45.851Z,45.78
2023-01-26T06:18:45.831Z,45.78
2023-01-26T06:19:45.857Z,45.78
2023-01-26T06:20:45.788Z,45.68
2023-01-26T06:21:45.838Z,45.78
2023-01-26T06:22:45.887Z,45.78
2023-01-26T06:23:45.831Z,45.78
2023-01-26T06:24:45.838Z,45.78
2023-01-26T06:25:45.847Z,45.78
2023-01-26T06:26:45.806Z,45.68
2023-01-26T06:27:45.852Z,45.68
2023-01-26T06:28:45.782Z,45.68
2023-01-26T06:29:45.802Z,45.68
2023-01-26T06:30:45.882Z,45.68
2023-01-26T06:31:45.919Z,45.68
2023-01-26T06:32:45.779Z,45.78
2023-01-26T06:33:45.777Z,45.78
2023-01-26T06:34:45.735Z,45.78
2023-01-26T06:35:45.748Z,45.78
2023-01-26T06:36:45.690Z,45.78
2023-01-26T06:37:45.681Z,45.78
2023-01-26T06:38:45.687Z,45.68
2023-01-26T06:39:45.663Z,45.68
2023-01-26T06:40:45.674Z,45.68
2023-01-26T06:41:45.624Z,45.68
2023-01-26T06:42:45.590Z,45.68
2023-01-26T06:43:45.607Z,45.78
2023-01-26T06:44:45.629Z,45.68
2023-01-26T06:45:46.645Z,45.68
2023-01-26T06:46:45.555Z,45.78
2023-01-26T06:47:45.581Z,45.68
2023-01-26T06:48:45.591Z,45.68
2023-01-26T06:49:45.560Z,45.68
2023-01-26T06:50:45.576Z,45.68
2023-01-26T06:51:45.488Z,45.68
2023-01-26T06:52:45.536Z,45.68
2023-01-26T06:53:45.488Z,45.68
2023-01-26T06:54:45.462Z,45.68
2023-01-26T06:55:45.492Z,45.68
2023-01-26T06:56:45.445Z,45.68
2023-01-26T06:57:45.415Z,45.68
2023-01-26T06:58:45.413Z,45.68
2023-01-26T06:59:45.407Z,45.68
2023-01-26T07:00:45.463Z,45.68
2023-01-26T07:01:45.432Z,45.68
2023-01-26T07:02:45.441Z,45.68
2023-01-26T07:03:45.368Z,45.78
2023-01-26T07:04:45.356Z,45.78
2023-01-26T07:05:45.374Z,45.78
2023-01-26T07:06:45.354Z,45.68
2023-01-26T07:07:45.345Z,45.68
2023-01-26T07:08:45.929Z,45.68
2023-01-26T07:09:45.377Z,45.78
2023-01-26T07:10:45.335Z,45.78
2023-01-26T07:11:45.313Z,45.78
2023-01-26T07:12:45.290Z,45.78
2023-01-26T07:13:45.327Z,45.88
2023-01-26T07:14:45.318Z,45.78
2023-01-26T07:15:45.327Z,45.88
2023-01-26T07:16:45.370Z,45.78
2023-01-26T07:17:45.308Z,45.88
2023-01-26T07:18:45.293Z,45.78
2023-01-26T07:19:45.287Z,45.78
2023-01-26T07:20:45.203Z,45.88
2023-01-26T07:21:45.173Z,45.88
2023-01-26T07:22:45.183Z,45.88
2023-01-26T07:23:45.146Z,45.88
2023-01-26T07:24:45.136Z,45.88
2023-01-26T07:25:45.138Z,45.78
2023-01-26T07:26:45.133Z,45.78
2023-01-26T07:27:45.128Z,45.78
2023-01-26T07:28:45.128Z,45.78
2023-01-26T07:29:45.144Z,45.68
2023-01-26T07:30:45.124Z,45.68
2023-01-26T07:31:45.211Z,45.68
2023-01-26T07:32:45.080Z,45.68
2023-01-26T07:33:45.045Z,45.66
2023-01-26T07:34:45.044Z,45.66
2023-01-26T07:35:45.021Z,45.66
2023-01-26T07:36:44.994Z,45.56
2023-01-26T07:37:45.011Z,45.66
2023-01-26T07:38:45.000Z,45.56
2023-01-26T07:39:44.970Z,45.56
2023-01-26T07:40:44.952Z,45.56
2023-01-26T07:41:44.949Z,45.56
2023-01-26T07:42:44.950Z,45.56
2023-01-26T07:43:45.006Z,45.56
2023-01-26T07:44:44.888Z,45.56
2023-01-26T07:45:44.886Z,45.46
2023-01-26T07:46:45.793Z,45.46
2023-01-26T07:47:44.877Z,45.46
2023-01-26T07:48:44.878Z,45.46
2023-01-26T07:49:44.885Z,45.56
2023-01-26T07:50:44.814Z,45.56
2023-01-26T07:51:44.821Z,45.46
2023-01-26T07:52:44.828Z,45.56
2023-01-26T07:53:44.814Z,45.56
2023-01-26T07:54:44.827Z,45.56
2023-01-26T07:55:44.736Z,45.56
2023-01-26T07:56:44.731Z,45.56
2023-01-26T07:57:44.765Z,45.56
2023-01-26T07:58:44.706Z,45.46
2023-01-26T07:59:44.711Z,45.46
2023-01-26T08:00:44.690Z,45.46
2023-01-26T08:01:44.688Z,45.46
2023-01-26T08:02:44.729Z,45.46
2023-01-26T08:03:44.643Z,45.46
2023-01-26T08:04:44.631Z,45.46
2023-01-26T08:05:44.688Z,45.46
2023-01-26T08:06:44.657Z,45.46
2023-01-26T08:07:44.645Z,45.46
2023-01-26T08:08:44.665Z,45.46
2023-01-26T08:09:44.598Z,45.46
2023-01-26T08:10:44.557Z,45.46
2023-01-26T08:11:44.570Z,45.46
2023-01-26T08:12:44.516Z,45.46
2023-01-26T08:13:44.547Z,45.46
2023-01-26T08:14:47.072Z,45.43
2023-01-26T08:15:44.480Z,45.43
2023-01-26T08:16:44.583Z,45.43
2023-01-26T08:17:44.490Z,45.43
2023-01-26T08:18:44.462Z,45.43
2023-01-26T08:19:44.437Z,45.43
2023-01-26T08:20:44.390Z,45.43
2023-01-26T08:21:44.494Z,45.43
2023-01-26T08:22:44.407Z,45.43
2023-01-26T08:23:44.412Z,45.43
2023-01-26T08:24:44.425Z,45.43
2023-01-26T08:25:44.462Z,45.43
2023-01-26T08:26:44.389Z,45.43
2023-01-26T08:27:44.349Z,45.34
2023-01-26T08:28:44.334Z,45.34
2023-01-26T08:29:44.371Z,45.34
2023-01-26T08:30:44.366Z,45.34
2023-01-26T08:31:44.406Z,45.43
2023-01-26T08:32:44.295Z,45.43
2023-01-26T08:33:44.302Z,45.43
2023-01-26T08:34:44.306Z,45.43
2023-01-26T08:35:44.310Z,45.43
2023-01-26T08:36:44.298Z,45.43
2023-01-26T08:37:44.284Z,45.43
2023-01-26T08:38:44.260Z,45.43
2023-01-26T08:39:44.265Z,45.43
2023-01-26T08:40:44.241Z,45.43
2023-01-26T08:41:44.281Z,45.43
2023-01-26T08:42:44.222Z,45.43
2023-01-26T08:43:44.237Z,45.43
2023-01-26T08:44:44.172Z,45.43
2023-01-26T08:45:44.202Z,45.43
2023-01-26T08:46:44.170Z,45.43
2023-01-26T08:47:44.136Z,45.43
2023-01-26T08:48:44.169Z,45.34
2023-01-26T08:49:44.137Z,45.43
2023-01-26T08:50:44.084Z,45.43
2023-01-26T08:51:44.086Z,45.43
2023-01-26T08:52:44.112Z,45.43
2023-01-26T08:53:44.076Z,45.43
2023-01-26T08:54:44.033Z,45.43
2023-01-26T08:55:44.065Z,45.43
2023-01-26T08:56:44.045Z,45.43
2023-01-26T08:57:44.008Z,45.43
2023-01-26T08:58:43.995Z,45.34
2023-01-26T08:59:44.037Z,45.43
2023-01-26T09:00:43.963Z,45.43
2023-01-26T09:01:43.930Z,45.43
2023-01-26T09:02:44.084Z,45.34
2023-01-26T09:03:43.930Z,45.43
2023-01-26T09:04:43.936Z,45.43
2023-01-26T09:05:43.980Z,45.43
2023-01-26T09:06:43.914Z,45.43
2023-01-26T09:07:43.919Z,45.43
2023-01-26T09:08:43.960Z,45.43
2023-01-26T09:09:43.906Z,45.43
2023-01-26T09:10:43.881Z,45.43
2023-01-26T09:11:43.862Z,45.54
2023-01-26T09:12:43.843Z,45.43
2023-01-26T09:13:43.972Z,45.43
2023-01-26T09:14:43.835Z,45.43
2023-01-26T09:15:43.830Z,45.43
2023-01-26T09:16:43.850Z,45.43
2023-01-26T09:17:43.773Z,45.43
2023-01-26T09:18:43.806Z,45.43
2023-01-26T09:19:45.021Z,45.43
2023-01-26T09:20:43.768Z,45.34
2023-01-26T09:21:43.758Z,45.34
2023-01-26T09:22:43.791Z,45.34
2023-01-26T09:23:43.723Z,45.34
2023-01-26T09:24:43.712Z,45.34
2023-01-26T09:25:43.805Z,45.34
2023-01-26T09:26:43.771Z,45.43
2023-01-26T09:27:43.676Z,45.34
2023-01-26T09:28:43.680Z,45.43
2023-01-26T09:29:43.706Z,45.43
2023-01-26T09:30:43.719Z,45.43
2023-01-26T09:31:43.783Z,45.34
2023-01-26T09:32:43.603Z,45.34
2023-01-26T09:33:45.203Z,45.34
2023-01-26T09:34:45.780Z,45.43
2023-01-26T09:35:43.571Z,45.34
2023-01-26T09:36:43.639Z,45.34
2023-01-26T09:37:43.597Z,45.34
2023-01-26T09:38:43.664Z,45.34
2023-01-26T09:39:43.645Z,45.34
2023-01-26T09:40:43.583Z,45.43
2023-01-26T09:41:43.556Z,45.43
2023-01-26T09:42:43.577Z,45.43
2023-01-26T09:43:43.517Z,45.43
2023-01-26T09:44:43.479Z,45.34
2023-01-26T09:45:43.465Z,45.34
2023-01-26T09:46:43.468Z,45.34
2023-01-26T09:47:43.417Z,45.34
2023-01-26T09:48:43.533Z,45.34
2023-01-26T09:49:43.451Z,45.43
2023-01-26T09:50:43.426Z,45.43
2023-01-26T09:51:43.433Z,45.43
2023-01-26T09:52:43.382Z,45.34
2023-01-26T09:53:43.383Z,45.34
2023-01-26T09:54:43.407Z,45.34
2023-01-26T09:55:43.391Z,45.34
2023-01-26T09:56:43.403Z,45.31
2023-01-26T09:57:43.348Z,45.21
2023-01-26T09:58:43.315Z,45.31
2023-01-26T09:59:43.329Z,45.31
2023-01-26T10:00:43.329Z,45.31
2023-01-26T10:01:43.318Z,45.21
2023-01-26T10:02:43.312Z,45.31
2023-01-26T10:03:43.252Z,45.31
2023-01-26T10:04:43.283Z,45.31
2023-01-26T10:05:43.271Z,45.31
2023-01-26T10:06:43.291Z,45.21
2023-01-26T10:07:43.265Z,45.31
2023-01-26T10:08:43.258Z,45.31
2023-01-26T10:09:45.210Z,45.24
2023-01-26T10:10:43.261Z,45.34
2023-01-26T10:11:43.234Z,45.34
2023-01-26T10:12:43.191Z,45.31
2023-01-26T10:13:43.201Z,45.34
2023-01-26T10:14:43.195Z,45.34
2023-01-26T10:15:43.269Z,45.34
2023-01-26T10:16:43.206Z,45.34
2023-01-26T10:17:43.127Z,45.34
2023-01-26T10:18:43.176Z,45.31
2023-01-26T10:19:43.158Z,45.34
2023-01-26T10:20:43.165Z,45.34
2023-01-26T10:21:43.136Z,45.34
2023-01-26T10:22:43.166Z,45.31
2023-01-26T10:23:43.084Z,45.34
2023-01-26T10:24:43.128Z,45.31
2023-01-26T10:25:43.096Z,45.31
2023-01-26T10:26:43.087Z,45.31
2023-01-26T10:27:43.080Z,45.34
2023-01-26T10:28:43.045Z,45.34
2023-01-26T10:29:43.048Z,45.43
2023-01-26T10:30:43.140Z,45.34
2023-01-26T10:31:43.144Z,45.43
2023-01-26T10:32:43.038Z,45.43
2023-01-26T10:33:43.015Z,45.43
2023-01-26T10:34:43.003Z,45.43
2023-01-26T10:35:43.044Z,45.43
2023-01-26T10:36:42.965Z,45.43
2023-01-26T10:37:43.260Z,45.43
2023-01-26T10:38:42.995Z,45.43
2023-01-26T10:39:42.973Z,45.42
2023-01-26T10:40:42.897Z,45.42
2023-01-26T10:41:42.883Z,45.31
2023-01-26T10:42:42.868Z,45.31
2023-01-26T10:43:42.902Z,45.31
2023-01-26T10:44:42.824Z,45.42
2023-01-26T10:45:42.822Z,45.42
2023-01-26T10:46:42.922Z,45.51
2023-01-26T10:47:42.807Z,45.42
2023-01-26T10:48:42.823Z,45.42
2023-01-26T10:49:42.773Z,45.42
2023-01-26T10:50:42.763Z,45.42
2023-01-26T10:51:42.724Z,45.42
2023-01-26T10:52:42.750Z,45.42
2023-01-26T10:53:42.709Z,45.42
2023-01-26T10:54:42.684Z,45.42
2023-01-26T10:55:42.661Z,45.51
2023-01-26T10:56:42.689Z,45.51
2023-01-26T10:57:42.674Z,45.51
2023-01-26T10:58:42.679Z,45.51
2023-01-26T10:59:42.654Z,45.51
2023-01-26T11:00:42.627Z,45.51
2023-01-26T11:01:42.674Z,45.51
2023-01-26T11:02:42.679Z,45.51
2023-01-26T11:03:42.627Z,45.51
2023-01-26T11:04:42.637Z,45.51
2023-01-26T11:05:42.603Z,45.51
2023-01-26T11:06:42.582Z,45.51
2023-01-26T11:07:42.592Z,45.42
2023-01-26T11:08:42.575Z,45.51
2023-01-26T11:09:42.545Z,45.51
2023-01-26T11:10:42.572Z,45.62
2023-01-26T11:11:42.599Z,45.51
2023-01-26T11:12:42.553Z,45.51
2023-01-26T11:13:42.585Z,45.51
2023-01-26T11:14:42.523Z,45.62
2023-01-26T11:15:42.488Z,45.62
2023-01-26T11:16:42.477Z,45.62
2023-01-26T11:17:42.489Z,45.51
2023-01-26T11:18:42.513Z,45.62
2023-01-26T11:19:42.482Z,45.51
2023-01-26T11:20:42.455Z,45.62
2023-01-26T11:21:42.480Z,45.62
2023-01-26T11:22:42.523Z,45.62
2023-01-26T11:23:42.444Z,45.62
2023-01-26T11:24:42.714Z,45.51
2023-01-26T11:25:42.481Z,45.62
2023-01-26T11:26:42.396Z,45.62
2023-01-26T11:27:42.479Z,45.62
2023-01-26T11:28:42.415Z,45.62
2023-01-26T11:29:42.388Z,45.62
2023-01-26T11:30:42.486Z,45.62
2023-01-26T11:31:42.472Z,45.62
2023-01-26T11:32:42.369Z,45.62
2023-01-26T11:33:42.369Z,45.62
2023-01-26T11:34:42.392Z,45.62
2023-01-26T11:35:42.373Z,45.62
2023-01-26T11:36:42.361Z,45.62
2023-01-26T11:37:42.316Z,45.62
2023-01-26T11:38:42.287Z,45.62
2023-01-26T11:39:42.229Z,45.62
2023-01-26T11:40:42.251Z,45.62
2023-01-26T11:41:42.310Z,45.62
2023-01-26T11:42:42.309Z,45.62
2023-01-26T11:43:42.265Z,45.62
2023-01-26T11:44:42.246Z,45.62
2023-01-26T11:45:42.309Z,45.62
2023-01-26T11:46:42.226Z,45.62
2023-01-26T11:47:42.205Z,45.62
2023-01-26T11:48:42.263Z,45.62
2023-01-26T11:49:42.274Z,45.62
2023-01-26T11:50:42.241Z,45.62
2023-01-26T11:51:42.188Z,45.62
2023-01-26T11:52:42.180Z,45.62
2023-01-26T11:53:42.190Z,45.62
2023-01-26T11:54:42.138Z,45.62
2023-01-26T11:55:42.135Z,45.62
2023-01-26T11:56:42.099Z,45.62
2023-01-26T11:57:42.102Z,45.62
2023-01-26T11:58:42.118Z,45.62
2023-01-26T11:59:42.099Z,45.72
2023-01-26T12:00:42.105Z,45.72
2023-01-26T12:01:42.077Z,45.72
2023-01-26T12:02:42.090Z,45.72
2023-01-26T12:03:42.132Z,45.72
2023-01-26T12:04:42.083Z,45.72
2023-01-26T12:05:42.071Z,45.72
2023-01-26T12:06:42.000Z,45.72
2023-01-26T12:07:41.996Z,45.72
2023-01-26T12:08:41.994Z,45.72
2023-01-26T12:09:42.023Z,45.72
2023-01-26T12:10:41.959Z,45.72
2023-01-26T12:11:41.989Z,45.72
2023-01-26T12:12:41.943Z,45.72
2023-01-26T12:13:41.987Z,45.72
2023-01-26T12:14:41.940Z,45.72
2023-01-26T12:15:41.918Z,45.72
2023-01-26T12:16:41.941Z,45.62
2023-01-26T12:17:41.903Z,45.62
2023-01-26T12:18:50.996Z,45.62
2023-01-26T12:19:41.880Z,45.72
2023-01-26T12:20:41.903Z,45.72
2023-01-26T12:21:41.879Z,45.62
2023-01-26T12:22:41.877Z,45.72
2023-01-26T12:23:41.867Z,45.72
2023-01-26T12:25:08.146Z,45.72
2023-01-26T12:25:41.969Z,45.72
2023-01-26T12:26:41.850Z,45.72
2023-01-26T12:27:41.831Z,45.62
2023-01-26T12:28:41.789Z,45.72
2023-01-26T12:29:41.766Z,45.62
2023-01-26T12:30:41.859Z,45.72
2023-01-26T12:31:41.819Z,45.62
2023-01-26T12:32:41.743Z,45.62
2023-01-26T12:33:41.746Z,45.62
2023-01-26T12:34:41.719Z,45.62
2023-01-26T12:35:41.743Z,45.62
2023-01-26T12:36:41.690Z,45.62
2023-01-26T12:37:41.741Z,45.62
2023-01-26T12:38:41.658Z,45.62
2023-01-26T12:39:41.634Z,45.72
2023-01-26T12:40:41.648Z,45.72
2023-01-26T12:41:41.618Z,45.62
2023-01-26T12:42:41.637Z,45.72
2023-01-26T12:43:41.657Z,45.62
2023-01-26T12:44:41.615Z,45.72
2023-01-26T12:45:41.747Z,45.72
2023-01-26T12:46:41.651Z,45.72
2023-01-26T12:47:41.604Z,45.72
2023-01-26T12:48:41.607Z,45.72
2023-01-26T12:49:41.599Z,45.72
2023-01-26T12:50:41.582Z,45.72
2023-01-26T12:51:41.565Z,45.72
2023-01-26T12:52:41.549Z,45.72